createdAt,value
2018-02-13T00:00:37.368Z,0.00
2018-02-13T00:01:37.380Z,0.00
2018-02-13T00:02:37.391Z,0.00
2018-02-13T00:03:37.406Z,0.00
2018-02-13T00:04:37.422Z,0.00
2018-02-13T00:05:37.433Z,0.00
2018-02-13T00:06:37.455Z,0.00
2018-02-13T00:07:37.466Z,0.00
2018-02-13T00:08:37.476Z,0.00
2018-02-13T00:09:37.489Z,0.00
2018-02-13T00:10:37.505Z,0.00
2018-02-13T00:11:37.513Z,0.00
2018-02-13T00:12:37.523Z,0.00
2018-02-13T00:13:37.541Z,0.00
2018-02-13T00:14:37.553Z,0.00
2018-02-13T00:15:37.568Z,0.00
2018-02-13T00:16:37.578Z,0.00
2018-02-13T00:17:37.591Z,0.00
2018-02-13T00:18:37.604Z,0.00
2018-02-13T00:19:37.625Z,0.00
2018-02-13T00:20:37.631Z,0.00
2018-02-13T00:21:37.646Z,0.00
2018-02-13T00:22:37.664Z,0.00
2018-02-13T00:23:37.675Z,0.00
2018-02-13T00:24:37.685Z,0.00
2018-02-13T00:25:37.701Z,0.00
2018-02-13T00:26:37.710Z,0.00
2018-02-13T00:27:37.726Z,0.00
2018-02-13T00:28:37.741Z,0.00
2018-02-13T00:29:37.753Z,0.00
2018-02-13T00:30:37.761Z,0.00
2018-02-13T00:31:37.775Z,0.00
2018-02-13T00:32:37.797Z,0.00
2018-02-13T00:33:37.806Z,0.00
2018-02-13T00:34:37.825Z,0.00
2018-02-13T00:35:37.831Z,0.00
2018-02-13T00:36:37.843Z,0.00
2018-02-13T00:37:37.855Z,0.00
2018-02-13T00:38:37.865Z,0.00
2018-02-13T00:39:37.886Z,0.00
2018-02-13T00:40:37.897Z,0.00
2018-02-13T00:41:37.908Z,0.00
2018-02-13T00:42:37.922Z,0.00
2018-02-13T00:43:37.933Z,0.00
2018-02-13T00:44:37.950Z,0.00
2018-02-13T00:45:37.962Z,0.00
2018-02-13T00:46:37.971Z,0.00
2018-02-13T00:47:37.984Z,0.00
2018-02-13T00:48:38.004Z,0.00
2018-02-13T00:49:38.017Z,0.00
2018-02-13T00:50:38.025Z,0.00
2018-02-13T00:51:38.048Z,0.00
2018-02-13T00:52:38.055Z,0.00
2018-02-13T00:53:38.072Z,0.00
2018-02-13T00:54:38.086Z,0.00
2018-02-13T00:55:38.097Z,0.00
2018-02-13T00:56:38.110Z,0.00
2018-02-13T00:57:38.118Z,0.00
2018-02-13T00:58:38.132Z,0.00
2018-02-13T00:59:38.145Z,0.00
2018-02-13T01:00:38.166Z,0.00
2018-02-13T01:01:38.170Z,0.00
2018-02-13T01:02:38.186Z,0.00
2018-02-13T01:03:38.199Z,0.00
2018-02-13T01:04:38.213Z,0.00
2018-02-13T01:05:38.229Z,0.00
2018-02-13T01:06:38.241Z,0.00
2018-02-13T01:07:38.249Z,0.00
2018-02-13T01:08:38.266Z,0.00
2018-02-13T01:09:38.276Z,0.00
2018-02-13T01:10:38.291Z,0.00
2018-02-13T01:11:38.303Z,0.00
2018-02-13T01:12:38.315Z,0.00
2018-02-13T01:13:38.332Z,0.00
2018-02-13T01:14:38.343Z,0.00
2018-02-13T01:15:38.354Z,0.00
2018-02-13T01:16:38.367Z,0.00
2018-02-13T01:17:38.385Z,0.00
2018-02-13T01:18:38.395Z,0.00
2018-02-13T01:19:38.414Z,0.00
2018-02-13T01:20:38.423Z,0.00
2018-02-13T01:21:38.437Z,0.00
2018-02-13T01:22:38.454Z,0.00
2018-02-13T01:23:38.459Z,0.00
2018-02-13T01:24:38.474Z,0.00
2018-02-13T01:25:38.488Z,0.00
2018-02-13T01:26:38.500Z,0.00
2018-02-13T01:27:38.514Z,0.00
2018-02-13T01:28:38.525Z,0.00
2018-02-13T01:29:38.538Z,0.00
2018-02-13T01:30:38.555Z,0.00
2018-02-13T01:31:38.573Z,0.00
2018-02-13T01:32:38.577Z,0.00
2018-02-13T01:33:38.592Z,0.00
2018-02-13T01:34:38.602Z,0.00
2018-02-13T01:35:38.639Z,0.00
2018-02-13T01:36:38.637Z,0.00
2018-02-13T01:37:38.646Z,0.00
2018-02-13T01:38:38.663Z,0.00
2018-02-13T01:39:38.670Z,0.00
2018-02-13T01:40:38.685Z,0.00
2018-02-13T01:41:38.708Z,0.00
2018-02-13T01:42:38.712Z,0.00
2018-02-13T01:43:38.726Z,0.00
2018-02-13T01:44:38.735Z,0.00
2018-02-13T01:45:38.749Z,0.00
2018-02-13T01:46:38.758Z,0.00
2018-02-13T01:47:38.788Z,0.00
2018-02-13T01:48:38.792Z,0.00
2018-02-13T01:49:38.823Z,0.00
2018-02-13T01:50:38.831Z,0.00
2018-02-13T01:51:38.840Z,0.00
2018-02-13T01:52:38.856Z,0.00
2018-02-13T01:53:38.853Z,0.00
2018-02-13T01:54:38.864Z,0.00
2018-02-13T01:55:38.878Z,0.00
2018-02-13T01:56:38.891Z,0.00
2018-02-13T01:57:38.903Z,0.00
2018-02-13T01:58:38.914Z,0.00
2018-02-13T01:59:38.931Z,0.00
2018-02-13T02:00:38.942Z,0.00
2018-02-13T02:01:38.955Z,0.00
2018-02-13T02:02:38.987Z,0.00
2018-02-13T02:03:38.989Z,0.00
2018-02-13T02:04:39.006Z,0.00
2018-02-13T02:05:39.008Z,0.00
2018-02-13T02:06:39.025Z,0.00
2018-02-13T02:07:39.038Z,0.00
2018-02-13T02:08:39.056Z,0.00
2018-02-13T02:09:39.067Z,0.00
2018-02-13T02:10:39.072Z,0.00
2018-02-13T02:11:39.090Z,0.00
2018-02-13T02:12:39.100Z,0.00
2018-02-13T02:13:39.112Z,0.00
2018-02-13T02:14:39.122Z,0.00
2018-02-13T02:15:39.149Z,0.00
2018-02-13T02:16:39.159Z,0.00
2018-02-13T02:17:39.164Z,0.00
2018-02-13T02:18:39.177Z,0.00
2018-02-13T02:19:39.192Z,0.00
2018-02-13T02:20:39.201Z,0.00
2018-02-13T02:21:39.221Z,0.00
2018-02-13T02:22:39.228Z,0.00
2018-02-13T02:23:39.253Z,0.00
2018-02-13T02:24:39.256Z,0.00
2018-02-13T02:25:39.288Z,0.00
2018-02-13T02:26:39.304Z,0.00
2018-02-13T02:27:39.308Z,0.00
2018-02-13T02:28:39.317Z,0.00
2018-02-13T02:29:39.340Z,0.00
2018-02-13T02:30:39.351Z,0.00
2018-02-13T02:31:39.342Z,0.00
2018-02-13T02:32:39.360Z,0.00
2018-02-13T02:33:39.372Z,0.00
2018-02-13T02:34:39.401Z,0.00
2018-02-13T02:35:39.409Z,0.00
2018-02-13T02:36:39.413Z,0.00
2018-02-13T02:37:39.474Z,0.00
2018-02-13T02:38:39.436Z,0.00
2018-02-13T02:39:39.449Z,0.00
2018-02-13T02:40:39.493Z,0.00
2018-02-13T02:41:39.474Z,0.00
2018-02-13T02:42:39.487Z,0.00
2018-02-13T02:43:39.512Z,0.00
2018-02-13T02:44:39.513Z,0.00
2018-02-13T02:45:39.529Z,0.00
2018-02-13T02:46:39.544Z,0.00
2018-02-13T02:47:39.551Z,0.00
2018-02-13T02:48:39.565Z,0.00
2018-02-13T02:49:39.593Z,0.00
2018-02-13T02:50:39.595Z,0.00
2018-02-13T02:51:39.606Z,0.00
2018-02-13T02:52:39.632Z,0.00
2018-02-13T02:53:39.630Z,0.00
2018-02-13T02:54:39.645Z,0.00
2018-02-13T02:55:39.656Z,0.00
2018-02-13T02:56:39.674Z,0.00
2018-02-13T02:57:39.685Z,0.00
2018-02-13T02:58:39.696Z,0.00
2018-02-13T02:59:39.706Z,0.00
2018-02-13T03:00:39.723Z,0.00
2018-02-13T03:01:39.734Z,0.00
2018-02-13T03:02:39.745Z,0.00
2018-02-13T03:03:39.759Z,0.00
2018-02-13T03:04:39.774Z,0.00
2018-02-13T03:05:39.782Z,0.00
2018-02-13T03:06:39.798Z,0.00
2018-02-13T03:07:39.810Z,0.00
2018-02-13T03:08:39.823Z,0.00
2018-02-13T03:09:39.841Z,0.00
2018-02-13T03:10:39.849Z,0.00
2018-02-13T03:11:39.862Z,0.00
2018-02-13T03:12:39.875Z,0.00
2018-02-13T03:13:39.925Z,0.00
2018-02-13T03:14:39.900Z,0.00
2018-02-13T03:15:39.916Z,0.00
2018-02-13T03:16:39.927Z,0.00
2018-02-13T03:17:39.937Z,0.00
2018-02-13T03:18:39.953Z,0.00
2018-02-13T03:19:39.963Z,0.00
2018-02-13T03:20:39.980Z,0.00
2018-02-13T03:21:39.991Z,0.00
2018-02-13T03:22:40.003Z,0.00
2018-02-13T03:23:40.018Z,0.00
2018-02-13T03:24:40.030Z,0.00
2018-02-13T03:25:40.042Z,0.00
2018-02-13T03:26:40.062Z,0.00
2018-02-13T03:27:40.074Z,0.00
2018-02-13T03:28:40.084Z,0.00
2018-02-13T03:29:40.097Z,0.00
2018-02-13T03:30:40.109Z,0.00
2018-02-13T03:31:40.121Z,0.00
2018-02-13T03:32:40.131Z,0.00
2018-02-13T03:33:40.146Z,0.00
2018-02-13T03:34:40.156Z,0.00
2018-02-13T03:35:40.173Z,0.00
2018-02-13T03:36:40.184Z,0.00
2018-02-13T03:37:40.196Z,0.00
2018-02-13T03:38:40.210Z,0.00
2018-02-13T03:39:40.221Z,0.00
2018-02-13T03:40:40.232Z,0.00
2018-02-13T03:41:40.252Z,0.00
2018-02-13T03:42:40.260Z,0.00
2018-02-13T03:43:40.274Z,0.00
2018-02-13T03:44:40.290Z,0.00
2018-02-13T03:45:40.303Z,0.00
2018-02-13T03:46:40.312Z,0.00
2018-02-13T03:47:40.324Z,0.00
2018-02-13T03:48:40.336Z,0.00
2018-02-13T03:49:40.351Z,0.00
2018-02-13T03:50:40.360Z,0.00
2018-02-13T03:51:40.378Z,0.00
2018-02-13T03:52:40.386Z,0.00
2018-02-13T03:53:40.407Z,0.00
2018-02-13T03:54:40.419Z,0.00
2018-02-13T03:55:40.430Z,0.00
2018-02-13T03:56:40.440Z,0.00
2018-02-13T03:57:40.454Z,0.00
2018-02-13T03:58:40.468Z,0.00
2018-02-13T03:59:40.480Z,0.00
2018-02-13T04:00:40.490Z,0.00
2018-02-13T04:01:40.506Z,0.00
2018-02-13T04:02:40.515Z,0.00
2018-02-13T04:03:40.527Z,0.00
2018-02-13T04:04:40.546Z,0.00
2018-02-13T04:05:40.557Z,0.00
2018-02-13T04:06:40.567Z,0.00
2018-02-13T04:07:40.581Z,0.00
2018-02-13T04:08:40.593Z,0.00
2018-02-13T04:09:40.609Z,0.00
2018-02-13T04:10:40.619Z,0.00
2018-02-13T04:11:40.632Z,0.00
2018-02-13T04:12:40.647Z,0.00
2018-02-13T04:13:40.659Z,0.00
2018-02-13T04:14:40.672Z,0.00
2018-02-13T04:15:40.681Z,0.00
2018-02-13T04:16:40.696Z,0.00
2018-02-13T04:17:40.710Z,0.00
2018-02-13T04:18:40.719Z,0.00
2018-02-13T04:19:40.735Z,0.00
2018-02-13T04:20:40.748Z,0.00
2018-02-13T04:21:40.757Z,0.00
2018-02-13T04:22:40.774Z,0.00
2018-02-13T04:23:40.788Z,0.00
2018-02-13T04:24:40.797Z,0.00
2018-02-13T04:25:40.811Z,0.00
2018-02-13T04:26:40.820Z,0.00
2018-02-13T04:27:40.840Z,0.00
2018-02-13T04:28:40.848Z,0.00
2018-02-13T04:29:40.861Z,0.00
2018-02-13T04:30:40.874Z,0.00
2018-02-13T04:31:40.888Z,0.00
2018-02-13T04:32:40.899Z,0.00
2018-02-13T04:33:40.912Z,0.00
2018-02-13T04:34:40.924Z,0.00
2018-02-13T04:35:40.939Z,0.00
2018-02-13T04:36:40.952Z,0.00
2018-02-13T04:37:40.959Z,0.00
2018-02-13T04:38:40.978Z,0.00
2018-02-13T04:39:40.984Z,0.00
2018-02-13T04:40:40.999Z,0.00
2018-02-13T04:41:41.013Z,0.00
2018-02-13T04:42:41.022Z,0.00
2018-02-13T04:43:41.041Z,0.00
2018-02-13T04:44:41.051Z,0.00
2018-02-13T04:45:41.102Z,0.00
2018-02-13T04:46:41.074Z,0.00
2018-02-13T04:47:41.090Z,0.00
2018-02-13T04:48:41.102Z,0.00
2018-02-13T04:49:41.112Z,0.00
2018-02-13T04:50:41.125Z,0.00
2018-02-13T04:51:41.137Z,0.00
2018-02-13T04:52:41.149Z,0.00
2018-02-13T04:53:41.168Z,0.00
2018-02-13T04:54:41.174Z,0.00
2018-02-13T04:55:41.189Z,0.00
2018-02-13T04:56:41.219Z,0.00
2018-02-13T04:57:41.214Z,0.00
2018-02-13T04:58:41.236Z,0.00
2018-02-13T04:59:41.238Z,0.00
2018-02-13T05:00:41.253Z,0.00
2018-02-13T05:01:41.278Z,0.00
2018-02-13T05:02:41.277Z,0.00
2018-02-13T05:03:41.304Z,0.00
2018-02-13T05:04:41.307Z,0.00
2018-02-13T05:05:41.324Z,0.00
2018-02-13T05:06:41.334Z,0.00
2018-02-13T05:07:41.340Z,0.00
2018-02-13T05:08:41.353Z,0.00
2018-02-13T05:09:41.375Z,0.00
2018-02-13T05:10:41.394Z,0.00
2018-02-13T05:11:41.391Z,0.00
2018-02-13T05:12:41.407Z,0.00
2018-02-13T05:13:41.429Z,0.00
2018-02-13T05:14:41.436Z,0.00
2018-02-13T05:15:41.466Z,0.00
2018-02-13T05:16:41.457Z,0.00
2018-02-13T05:17:41.469Z,0.00
2018-02-13T05:18:41.481Z,0.00
2018-02-13T05:19:41.515Z,0.00
2018-02-13T05:20:41.509Z,0.00
2018-02-13T05:21:41.524Z,0.00
2018-02-13T05:22:41.534Z,0.00
2018-02-13T05:23:41.545Z,0.00
2018-02-13T05:24:41.572Z,0.00
2018-02-13T05:25:41.596Z,0.00
2018-02-13T05:26:41.582Z,0.00
2018-02-13T05:27:41.593Z,0.00
2018-02-13T05:28:41.611Z,0.00
2018-02-13T05:29:41.643Z,0.00
2018-02-13T05:30:41.649Z,0.00
2018-02-13T05:31:41.646Z,0.00
2018-02-13T05:32:41.663Z,0.00
2018-02-13T05:33:41.671Z,0.00
2018-02-13T05:34:41.684Z,0.00
2018-02-13T05:35:41.748Z,0.00
2018-02-13T05:36:41.709Z,0.00
2018-02-13T05:37:41.727Z,0.00
2018-02-13T05:38:41.735Z,0.00
2018-02-13T05:39:41.783Z,0.00
2018-02-13T05:40:41.803Z,0.00
2018-02-13T05:41:41.788Z,0.00
2018-02-13T05:42:41.796Z,0.00
2018-02-13T05:43:41.799Z,0.00
2018-02-13T05:44:41.815Z,0.00
2018-02-13T05:45:41.827Z,0.00
2018-02-13T05:46:41.839Z,0.00
2018-02-13T05:47:41.851Z,0.00
2018-02-13T05:48:41.867Z,0.00
2018-02-13T05:49:41.878Z,0.00
2018-02-13T05:50:41.892Z,0.00
2018-02-13T05:51:41.905Z,0.00
2018-02-13T05:52:41.914Z,0.00
2018-02-13T05:53:41.927Z,0.00
2018-02-13T05:54:41.939Z,0.00
2018-02-13T05:55:41.962Z,0.00
2018-02-13T05:56:41.974Z,0.00
2018-02-13T05:57:41.982Z,0.00
2018-02-13T05:58:41.990Z,0.00
2018-02-13T05:59:42.007Z,0.00
2018-02-13T06:00:42.028Z,0.00
2018-02-13T06:01:42.038Z,0.00
2018-02-13T06:02:42.054Z,0.00
2018-02-13T06:03:42.056Z,0.00
2018-02-13T06:04:42.070Z,0.00
2018-02-13T06:05:42.082Z,0.00
2018-02-13T06:06:42.092Z,0.00
2018-02-13T06:07:42.104Z,0.00
2018-02-13T06:08:42.124Z,0.00
2018-02-13T06:09:42.132Z,0.00
2018-02-13T06:10:42.145Z,0.00
2018-02-13T06:11:42.156Z,0.00
2018-02-13T06:12:42.172Z,0.00
2018-02-13T06:13:42.196Z,0.00
2018-02-13T06:14:42.195Z,0.00
2018-02-13T06:15:42.209Z,0.00
2018-02-13T06:16:42.221Z,0.00
2018-02-13T06:17:42.233Z,4.00
2018-02-13T06:18:42.250Z,4.00
2018-02-13T06:19:42.257Z,0.00
2018-02-13T06:20:42.273Z,4.00
2018-02-13T06:21:42.281Z,4.00
2018-02-13T06:22:42.295Z,4.00
2018-02-13T06:23:42.308Z,4.00
2018-02-13T06:24:42.321Z,8.00
2018-02-13T06:25:42.332Z,8.00
2018-02-13T06:26:42.347Z,4.00
2018-02-13T06:27:42.362Z,8.00
2018-02-13T06:28:42.372Z,12.00
2018-02-13T06:29:42.384Z,12.00
2018-02-13T06:30:42.398Z,12.00
2018-02-13T06:31:42.409Z,16.00
2018-02-13T06:32:42.421Z,20.00
2018-02-13T06:33:42.436Z,20.00
2018-02-13T06:34:42.453Z,28.00
2018-02-13T06:35:42.461Z,28.00
2018-02-13T06:36:42.476Z,36.00
2018-02-13T06:37:42.487Z,36.00
2018-02-13T06:38:42.495Z,44.00
2018-02-13T06:39:42.511Z,52.00
2018-02-13T06:40:42.523Z,56.00
2018-02-13T06:41:42.534Z,64.00
2018-02-13T06:42:42.549Z,68.00
2018-02-13T06:43:42.563Z,80.00
2018-02-13T06:44:42.572Z,92.00
2018-02-13T06:45:42.589Z,96.00
2018-02-13T06:46:42.598Z,108.00
2018-02-13T06:47:42.611Z,120.00
2018-02-13T06:48:42.628Z,132.00
2018-02-13T06:49:42.634Z,144.00
2018-02-13T06:50:42.648Z,160.00
2018-02-13T06:51:42.661Z,172.00
2018-02-13T06:52:42.678Z,188.00
2018-02-13T06:53:42.685Z,204.00
2018-02-13T06:54:42.708Z,220.00
2018-02-13T06:55:42.710Z,236.00
2018-02-13T06:56:42.723Z,256.00
2018-02-13T06:57:42.734Z,272.00
2018-02-13T06:58:42.750Z,296.00
2018-02-13T06:59:42.761Z,316.00
2018-02-13T07:00:42.776Z,336.00
2018-02-13T07:01:42.785Z,356.00
2018-02-13T07:02:42.799Z,376.00
2018-02-13T07:03:42.813Z,400.00
2018-02-13T07:04:42.832Z,420.00
2018-02-13T07:05:42.852Z,440.00
2018-02-13T07:06:42.848Z,456.00
2018-02-13T07:07:42.863Z,484.00
2018-02-13T07:08:42.877Z,508.00
2018-02-13T07:09:42.896Z,532.00
2018-02-13T07:10:42.901Z,556.00
2018-02-13T07:11:42.915Z,580.00
2018-02-13T07:12:42.925Z,604.00
2018-02-13T07:13:42.947Z,632.00
2018-02-13T07:14:42.952Z,656.00
2018-02-13T07:15:43.021Z,684.00
2018-02-13T07:16:42.984Z,708.00
2018-02-13T07:17:43.012Z,740.00
2018-02-13T07:18:43.012Z,772.00
2018-02-13T07:19:43.013Z,792.00
2018-02-13T07:20:43.028Z,808.00
2018-02-13T07:21:43.065Z,844.00
2018-02-13T07:22:43.088Z,892.00
2018-02-13T07:23:43.069Z,928.00
2018-02-13T07:24:43.082Z,948.00
2018-02-13T07:25:43.093Z,976.00
2018-02-13T07:26:43.107Z,1004.00
2018-02-13T07:27:43.121Z,1032.00
2018-02-13T07:28:43.132Z,1056.00
2018-02-13T07:29:43.149Z,1080.00
2018-02-13T07:30:43.159Z,1108.00
2018-02-13T07:31:43.178Z,1132.00
2018-02-13T07:32:43.187Z,1156.00
2018-02-13T07:33:43.194Z,1176.00
2018-02-13T07:34:43.216Z,1196.00
2018-02-13T07:35:43.227Z,1220.00
2018-02-13T07:36:43.235Z,1244.00
2018-02-13T07:37:43.246Z,1264.00
2018-02-13T07:38:43.261Z,1284.00
2018-02-13T07:39:43.273Z,1308.00
2018-02-13T07:40:43.304Z,1328.00
2018-02-13T07:41:43.299Z,1344.00
2018-02-13T07:42:43.318Z,1364.00
2018-02-13T07:43:43.326Z,1384.00
2018-02-13T07:44:43.340Z,1408.00
2018-02-13T07:45:43.353Z,1424.00
2018-02-13T07:46:43.362Z,1448.00
2018-02-13T07:47:43.377Z,1468.00
2018-02-13T07:48:43.387Z,1484.00
2018-02-13T07:49:43.403Z,1508.00
2018-02-13T07:50:43.415Z,1524.00
2018-02-13T07:51:43.429Z,1544.00
2018-02-13T07:52:43.441Z,1568.00
2018-02-13T07:53:43.456Z,1588.00
2018-02-13T07:54:43.465Z,1604.00
2018-02-13T07:55:43.479Z,1628.00
2018-02-13T07:56:43.494Z,1648.00
2018-02-13T07:57:43.505Z,1664.00
2018-02-13T07:58:43.528Z,1684.00
2018-02-13T07:59:43.537Z,1704.00
2018-02-13T08:00:43.546Z,1724.00
2018-02-13T08:01:43.559Z,1740.00
2018-02-13T08:02:43.569Z,1752.00
2018-02-13T08:03:43.581Z,1768.00
2018-02-13T08:04:43.595Z,1784.00
2018-02-13T08:05:43.618Z,1800.00
2018-02-13T08:06:43.624Z,1816.00
2018-02-13T08:07:43.649Z,1832.00
2018-02-13T08:08:43.651Z,1844.00
2018-02-13T08:09:43.668Z,1860.00
2018-02-13T08:10:43.676Z,1872.00
2018-02-13T08:11:43.689Z,1884.00
2018-02-13T08:12:43.706Z,1896.00
2018-02-13T08:13:43.717Z,1912.00
2018-02-13T08:14:43.732Z,1928.00
2018-02-13T08:15:43.745Z,1940.00
2018-02-13T08:16:43.755Z,1952.00
2018-02-13T08:17:43.774Z,1964.00
2018-02-13T08:18:43.797Z,1980.00
2018-02-13T08:19:43.810Z,1992.00
2018-02-13T08:20:43.812Z,2004.00
2018-02-13T08:21:43.824Z,2020.00
2018-02-13T08:22:43.845Z,2036.00
2018-02-13T08:23:43.849Z,2048.00
2018-02-13T08:24:43.929Z,2068.00
2018-02-13T08:25:43.878Z,2084.00
2018-02-13T08:26:43.890Z,2100.00
2018-02-13T08:27:43.912Z,2116.00
2018-02-13T08:28:43.922Z,2132.00
2018-02-13T08:29:43.928Z,2152.00
2018-02-13T08:30:43.990Z,2164.00
2018-02-13T08:31:43.960Z,2180.00
2018-02-13T08:32:43.971Z,2196.00
2018-02-13T08:33:43.985Z,2208.00
2018-02-13T08:34:44.023Z,2224.00
2018-02-13T08:35:44.017Z,2232.00
2018-02-13T08:36:44.028Z,2252.00
2018-02-13T08:37:44.049Z,2260.00
2018-02-13T08:38:44.063Z,2276.00
2018-02-13T08:39:44.082Z,2288.00
2018-02-13T08:40:44.084Z,2300.00
2018-02-13T08:41:44.094Z,2312.00
2018-02-13T08:42:44.112Z,2320.00
2018-02-13T08:43:44.120Z,2336.00
2018-02-13T08:44:44.133Z,2344.00
2018-02-13T08:45:44.154Z,2352.00
2018-02-13T08:46:44.165Z,2368.00
2018-02-13T08:47:44.175Z,2376.00
2018-02-13T08:48:44.193Z,2388.00
2018-02-13T08:49:44.205Z,2400.00
2018-02-13T08:50:44.221Z,2408.00
2018-02-13T08:51:44.233Z,2416.00
2018-02-13T08:52:44.246Z,2424.00
2018-02-13T08:53:44.264Z,2428.00
2018-02-13T08:54:44.276Z,2436.00
2018-02-13T08:55:44.310Z,2448.00
2018-02-13T08:56:44.301Z,2452.00
2018-02-13T08:57:44.317Z,2460.00
2018-02-13T08:58:44.333Z,2464.00
2018-02-13T08:59:44.347Z,2464.00
2018-02-13T09:00:44.360Z,2468.00
2018-02-13T09:01:44.425Z,2476.00
2018-02-13T09:02:44.389Z,2476.00
2018-02-13T09:03:44.405Z,2476.00
2018-02-13T09:04:44.420Z,2480.00
2018-02-13T09:05:44.431Z,2484.00
2018-02-13T09:06:44.475Z,2484.00
2018-02-13T09:07:44.458Z,2480.00
2018-02-13T09:08:44.479Z,2484.00
2018-02-13T09:09:44.488Z,2488.00
2018-02-13T09:10:44.505Z,2500.00
2018-02-13T09:11:44.516Z,2500.00
2018-02-13T09:12:44.530Z,2500.00
2018-02-13T09:13:44.544Z,2508.00
2018-02-13T09:14:44.639Z,2512.00
2018-02-13T09:15:44.574Z,2516.00
2018-02-13T09:16:44.585Z,2516.00
2018-02-13T09:17:44.601Z,2524.00
2018-02-13T09:18:44.618Z,2524.00
2018-02-13T09:19:44.687Z,2532.00
2018-02-13T09:20:44.646Z,2536.00
2018-02-13T09:21:44.666Z,2536.00
2018-02-13T09:22:44.678Z,2536.00
2018-02-13T09:23:44.689Z,2544.00
2018-02-13T09:24:44.704Z,2548.00
2018-02-13T09:25:44.718Z,2552.00
2018-02-13T09:26:44.736Z,2552.00
2018-02-13T09:27:44.748Z,2556.00
2018-02-13T09:28:44.764Z,2560.00
2018-02-13T09:29:44.776Z,2560.00
2018-02-13T09:30:44.791Z,2564.00
2018-02-13T09:31:44.804Z,2568.00
2018-02-13T09:32:44.820Z,2568.00
2018-02-13T09:33:44.835Z,2572.00
2018-02-13T09:34:44.860Z,2572.00
2018-02-13T09:35:44.865Z,2572.00
2018-02-13T09:36:44.879Z,2572.00
2018-02-13T09:37:44.894Z,2572.00
2018-02-13T09:38:44.907Z,2572.00
2018-02-13T09:39:44.921Z,2576.00
2018-02-13T09:40:44.934Z,2580.00
2018-02-13T09:41:44.951Z,2572.00
2018-02-13T09:42:44.965Z,2576.00
2018-02-13T09:43:44.986Z,2572.00
2018-02-13T09:44:44.995Z,2576.00
2018-02-13T09:45:45.015Z,2576.00
2018-02-13T09:46:45.026Z,2584.00
2018-02-13T09:47:45.042Z,2576.00
2018-02-13T09:48:45.058Z,2580.00
2018-02-13T09:49:45.073Z,2584.00
2018-02-13T09:50:45.084Z,2580.00
2018-02-13T09:51:45.097Z,2584.00
2018-02-13T09:52:45.114Z,2580.00
2018-02-13T09:53:45.133Z,2580.00
2018-02-13T09:54:45.142Z,2580.00
2018-02-13T09:55:45.192Z,2576.00
2018-02-13T09:56:45.172Z,2580.00
2018-02-13T09:57:45.189Z,2576.00
2018-02-13T09:58:45.202Z,2584.00
2018-02-13T09:59:45.217Z,2588.00
2018-02-13T10:00:45.233Z,2588.00
2018-02-13T10:01:45.249Z,2584.00
2018-02-13T10:02:45.263Z,2580.00
2018-02-13T10:03:45.279Z,2580.00
2018-02-13T10:04:45.298Z,2584.00
2018-02-13T10:05:45.306Z,2584.00
2018-02-13T10:06:45.320Z,2584.00
2018-02-13T10:07:45.336Z,2584.00
2018-02-13T10:08:45.351Z,2584.00
2018-02-13T10:09:45.367Z,2588.00
2018-02-13T10:10:45.382Z,2592.00
2018-02-13T10:11:45.396Z,2596.00
2018-02-13T10:12:45.413Z,2588.00
2018-02-13T10:13:45.426Z,2588.00
2018-02-13T10:14:45.440Z,2596.00
2018-02-13T10:15:45.463Z,2596.00
2018-02-13T10:16:45.475Z,2596.00
2018-02-13T10:17:45.489Z,2600.00
2018-02-13T10:18:45.499Z,2600.00
2018-02-13T10:19:45.516Z,2604.00
2018-02-13T10:20:45.529Z,2604.00
2018-02-13T10:21:45.546Z,2604.00
2018-02-13T10:22:45.560Z,2604.00
2018-02-13T10:23:45.573Z,2604.00
2018-02-13T10:24:45.590Z,2604.00
2018-02-13T10:25:45.606Z,2604.00
2018-02-13T10:26:45.619Z,2612.00
2018-02-13T10:27:45.644Z,2608.00
2018-02-13T10:28:45.651Z,2608.00
2018-02-13T10:29:45.667Z,2612.00
2018-02-13T10:30:45.682Z,2616.00
2018-02-13T10:31:45.695Z,2616.00
2018-02-13T10:32:45.707Z,2620.00
2018-02-13T10:33:45.727Z,2624.00
2018-02-13T10:34:45.742Z,2624.00
2018-02-13T10:35:45.789Z,2624.00
2018-02-13T10:36:45.772Z,2632.00
2018-02-13T10:37:45.783Z,2636.00
2018-02-13T10:38:45.806Z,2628.00
2018-02-13T10:39:45.817Z,2632.00
2018-02-13T10:40:45.831Z,2644.00
2018-02-13T10:41:45.851Z,2636.00
2018-02-13T10:42:45.860Z,2636.00
2018-02-13T10:43:45.877Z,2640.00
2018-02-13T10:44:45.891Z,2644.00
2018-02-13T10:45:45.910Z,2644.00
2018-02-13T10:46:45.928Z,2648.00
2018-02-13T10:47:45.941Z,2648.00
2018-02-13T10:48:45.953Z,2652.00
2018-02-13T10:49:46.031Z,2656.00
2018-02-13T10:50:45.981Z,2660.00
2018-02-13T10:51:46.009Z,2656.00
2018-02-13T10:52:46.019Z,2664.00
2018-02-13T10:53:46.048Z,2668.00
2018-02-13T10:54:46.045Z,2664.00
2018-02-13T10:55:46.067Z,2672.00
2018-02-13T10:56:46.073Z,2680.00
2018-02-13T10:57:46.106Z,2680.00
2018-02-13T10:58:46.110Z,2684.00
2018-02-13T10:59:46.126Z,2684.00
2018-02-13T11:00:46.137Z,2684.00
2018-02-13T11:01:46.153Z,2688.00
2018-02-13T11:02:46.165Z,2696.00
2018-02-13T11:03:46.182Z,2700.00
2018-02-13T11:04:46.195Z,2700.00
2018-02-13T11:05:46.222Z,2700.00
2018-02-13T11:06:46.231Z,2696.00
2018-02-13T11:07:46.265Z,2700.00
2018-02-13T11:08:46.264Z,2700.00
2018-02-13T11:09:46.281Z,2696.00
2018-02-13T11:10:46.295Z,2696.00
2018-02-13T11:11:46.309Z,2704.00
2018-02-13T11:12:46.325Z,2708.00
2018-02-13T11:13:46.336Z,2708.00
2018-02-13T11:14:46.351Z,2716.00
2018-02-13T11:15:46.371Z,2708.00
2018-02-13T11:16:46.383Z,2712.00
2018-02-13T11:17:46.396Z,2716.00
2018-02-13T11:18:46.413Z,2716.00
2018-02-13T11:19:46.471Z,2716.00
2018-02-13T11:20:46.446Z,2716.00
2018-02-13T11:21:46.459Z,2712.00
2018-02-13T11:22:46.499Z,2716.00
2018-02-13T11:23:46.487Z,2724.00
2018-02-13T11:24:46.521Z,2724.00
2018-02-13T11:25:46.612Z,2728.00
2018-02-13T11:26:46.549Z,2736.00
2018-02-13T11:27:46.560Z,2728.00
2018-02-13T11:28:46.593Z,2728.00
2018-02-13T11:29:46.594Z,2736.00
2018-02-13T11:30:46.602Z,2736.00
2018-02-13T11:31:46.612Z,2740.00
2018-02-13T11:32:46.638Z,2744.00
2018-02-13T11:33:46.656Z,2752.00
2018-02-13T11:34:46.658Z,2748.00
2018-02-13T11:35:46.673Z,2748.00
2018-02-13T11:36:46.692Z,2752.00
2018-02-13T11:37:46.707Z,2756.00
2018-02-13T11:38:46.723Z,2760.00
2018-02-13T11:39:46.738Z,2756.00
2018-02-13T11:40:46.752Z,2764.00
2018-02-13T11:41:46.768Z,2764.00
2018-02-13T11:42:46.797Z,2764.00
2018-02-13T11:43:46.803Z,2764.00
2018-02-13T11:44:46.816Z,2768.00
2018-02-13T11:45:46.834Z,2760.00
2018-02-13T11:46:46.844Z,2768.00
2018-02-13T11:47:46.874Z,2768.00
2018-02-13T11:48:46.882Z,2760.00
2018-02-13T11:49:46.902Z,2768.00
2018-02-13T11:50:46.909Z,2768.00
2018-02-13T11:51:46.938Z,2768.00
2018-02-13T11:52:46.946Z,2772.00
2018-02-13T11:53:46.956Z,2772.00
2018-02-13T11:54:46.975Z,2776.00
2018-02-13T11:55:46.986Z,2776.00
2018-02-13T11:56:47.001Z,2776.00
2018-02-13T11:57:47.019Z,2776.00
2018-02-13T11:58:47.030Z,2780.00
2018-02-13T11:59:47.056Z,2780.00
2018-02-13T12:00:47.065Z,2788.00
2018-02-13T12:01:47.079Z,2784.00
2018-02-13T12:02:47.163Z,2792.00
2018-02-13T12:03:47.120Z,2796.00
2018-02-13T12:04:47.129Z,2796.00
2018-02-13T12:05:47.145Z,2792.00
2018-02-13T12:06:47.172Z,2788.00
2018-02-13T12:07:47.175Z,2796.00
2018-02-13T12:08:47.193Z,2804.00
2018-02-13T12:09:47.230Z,2796.00
2018-02-13T12:10:47.228Z,2808.00
2018-02-13T12:11:47.242Z,2812.00
2018-02-13T12:12:47.325Z,2804.00
2018-02-13T12:13:47.280Z,2804.00
2018-02-13T12:14:47.303Z,2808.00
2018-02-13T12:15:47.347Z,2808.00
2018-02-13T12:16:47.316Z,2812.00
2018-02-13T12:17:47.329Z,2808.00
2018-02-13T12:18:47.352Z,2812.00
2018-02-13T12:19:47.363Z,2824.00
2018-02-13T12:20:47.381Z,2824.00
2018-02-13T12:21:47.410Z,2824.00
2018-02-13T12:22:47.414Z,2820.00
2018-02-13T12:23:47.483Z,2816.00
2018-02-13T12:24:47.445Z,2812.00
2018-02-13T12:25:47.458Z,2812.00
2018-02-13T12:26:47.481Z,2816.00
2018-02-13T12:27:47.488Z,2812.00
2018-02-13T12:28:47.507Z,2812.00
2018-02-13T12:29:47.525Z,2816.00
2018-02-13T12:30:47.538Z,2836.00
2018-02-13T12:31:47.556Z,2760.00
2018-02-13T12:32:47.570Z,2896.00
2018-02-13T12:33:47.587Z,2912.00
2018-02-13T12:34:47.663Z,2976.00
2018-02-13T12:35:47.621Z,2972.00
2018-02-13T12:36:47.636Z,2944.00
2018-02-13T12:37:47.652Z,2900.00
2018-02-13T12:38:47.668Z,2888.00
2018-02-13T12:39:47.683Z,2872.00
2018-02-13T12:40:47.699Z,2860.00
2018-02-13T12:41:47.715Z,2848.00
2018-02-13T12:42:47.732Z,2856.00
2018-02-13T12:43:47.744Z,2852.00